Report METAR

 

LIPQ - Ronchi Legionari, Italy
Distance from station: SSO 4km
Dati ricevuti: 18/08/2019 05:50
Sereno
Sereno
 Vento da Variabile
Vento: Variabile 4 km/h
Temperatura: 20°C
P.to Rugiada: 15°C
Umidità: 73%
Barometro: 1016 hPa
Summary: Sereno
Visibility: superiore a 10 km
2019/08/18 05:50 LIPQ 180550Z VRB02KT CAVOK 20/15 Q1016
LIVT - Trieste, Italy
Distance from station: SE 27km
Dati ricevuti: 18/08/2019 05:55
Sereno
Sereno
 Vento da calmo
Vento: Calma
Temperatura: 22°C
P.to Rugiada: 18°C
Umidità: 78%
Barometro: 1015 hPa
Summary: Sereno
Visibility: superiore a 10 km
2019/08/18 05:55 LIVT 180555Z 00000KT CAVOK 22/18 Q1015 RMK SKC QUK 0 QUL 0 VIS MAR 20 KM VIS MIN 9999
 
LIPI - Rivolto (it-Afb), Italy
Distance from station: ONO 37km
Dati ricevuti: 15/08/2019 23:55
DATI Obsoleti
Thunderstorm rain, Parz. nuvoloso
Thunderstorm rain, Parz. nuvoloso
 Vento da Variabile
Vento: Variabile 0 km/h
Temperatura: 18°C
P.to Rugiada: 15°C
Umidità: 83%
Barometro: 1015 hPa
Summary: Thunderstorm Rain
Nuvole: Parz. nuvoloso
Visibility: 10 km
Cloud details: Few Clouds 1219 m
Parz. nuvoloso 2134 m
2019/08/15 23:55 LIPI 152355Z /////KT 9999 TSRA FEW040CB SCT070 18/15 Q1015 RMK OVC BKN120 VIS MIN 7000W WIND THR06 /////KT WIND THR24 01008KT WHT
LJPZ - Portoroz, Slovenia
Distance from station: SSE 43km
Dati ricevuti: 18/08/2019 06:00
Sereno
Sereno
 Vento da SE
Vento: SE 15 km/h
Temperatura: 19°C
P.to Rugiada: 14°C
Umidità: 73%
Barometro: 1015 hPa
Summary: Sereno
Visibility: superiore a 10 km
2019/08/18 06:00 LJPZ 180600Z 13008KT CAVOK 19/14 Q1015
 
LIPA - Aviano (it/Us-Af, Italy
Distance from station: ONO 73km
Dati ricevuti: 17/08/2019 19:55
DATI Obsoleti
Few Clouds
Few Clouds
 Vento da NE
Vento: NE 2 km/h
Temperatura: 22°C
P.to Rugiada: 19°C
Umidità: 83%
Barometro: 1016 hPa
Nuvole: Few Clouds
Visibility: 10 km
Cloud details: Few Clouds 3048 m
2019/08/17 19:55 LIPA 171955Z 05001KT 9999 FEW100 22/19 Q1016 RMK FEW VIS MIN 9999 WIND THR05 /////KT WIND THR23 /////KT A3000 BLU
LIVO - Tarvisio, Italy
Distance from station: N 73km
Dati ricevuti: 18/08/2019 05:55
Sereno
Sereno
 Vento da O
Vento: O 7 km/h
Temperatura: 16°C
P.to Rugiada: 14°C
Umidità: 88%
Barometro: 1018 hPa
Summary: Sereno
Visibility: superiore a 10 km
2019/08/18 05:55 LIVO 180555Z 28004KT CAVOK 16/14 Q1018 RMK SKC VIS MIN 9999
 
LJLJ - Ljubljana/Brnik, Slovenia
Distance from station: ENE 86km
Dati ricevuti: 18/08/2019 06:00
Sereno
Sereno
 Vento da Variabile
Vento: Variabile 2 km/h
Temperatura: 16°C
P.to Rugiada: 15°C
Umidità: 94%
Barometro: 1017 hPa
Summary: Sereno
Visibility: superiore a 10 km
2019/08/18 06:00 LJLJ 180600Z VRB01KT CAVOK 16/15 Q1017 NOSIG
LIPZ - Venezia/Tessera, Italy
Distance from station: OSO 96km
Dati ricevuti: 18/08/2019 06:20
Parz. nuvoloso
Parz. nuvoloso
 Vento da N
Vento: N 7 km/h
Temperatura: 22°C
P.to Rugiada: 18°C
Umidità: 78%
Barometro: 1015 hPa
Nuvole: Parz. nuvoloso
Visibility: 9 km
2019/08/18 06:20 LIPZ 180620Z 01004KT 9000 NSC 22/18 Q1015 NOSIG
 
LIPH - Treviso(Civ/It-A, Italy
Distance from station: OSO 105km
Dati ricevuti: 18/08/2019 06:20
Sereno
Sereno
 Vento da NNE
Vento: NNE 6 km/h
Temperatura: 21°C
P.to Rugiada: 18°C
Umidità: 83%
Barometro: 1015 hPa
Summary: Sereno
Visibility: superiore a 10 km
2019/08/18 06:20 LIPH 180620Z 03003KT 360V060 CAVOK 21/18 Q1015
LDRI - Rijeka/Omisalj, Croatia
Distance from station: SE 109km
Dati ricevuti: 18/08/2019 06:00
Sereno
Sereno
 Vento da Variabile
Vento: Variabile 2 km/h
Temperatura: 23°C
P.to Rugiada: 18°C
Umidità: 74%
Barometro: 1016 hPa
Summary: Sereno
Visibility: superiore a 10 km
2019/08/18 06:00 LDRI 180600Z VRB01KT CAVOK 23/18 Q1016
 
LOWK - Klagenfurt(Civ/M, Austria
Distance from station: NE 110km
Dati ricevuti: 18/08/2019 06:20
Sereno
Sereno
 Vento da NO
Vento: NO 6 km/h
Temperatura: 19°C
P.to Rugiada: 15°C
Umidità: 78%
Barometro: 1017 hPa
Summary: Sereno
Visibility: superiore a 10 km
2019/08/18 06:20 LOWK 180620Z 32003KT CAVOK 19/15 Q1017 NOSIG
LIPS - Istrana (it-Afb), Italy
Distance from station: O 111km
Dati ricevuti: 18/08/2019 05:55
Sereno
Sereno
 Vento da Variabile
Vento: Variabile 0 km/h
Temperatura: 22°C
P.to Rugiada: 21°C
Umidità: 94%
Barometro: 1015 hPa
Summary: Sereno
Visibility: superiore a 10 km
2019/08/18 05:55 LIPS 180555Z /////KT CAVOK 22/21 Q1015 RMK SKC VIS MIN 9999 WIND THR26 06005KT WIND THR08 02004KT BLU
 
LDPL - Pula, Croatia
Distance from station: SSE 112km
Dati ricevuti: 18/08/2019 06:00
Sereno
Sereno
 Vento da E
Vento: E 6 km/h
Temperatura: 22°C
P.to Rugiada: 14°C
Umidità: 61%
Barometro: 1016 hPa
Summary: Sereno
Visibility: superiore a 10 km
2019/08/18 06:00 LDPL 180600Z 10003KT 060V130 CAVOK 22/14 Q1016 NOSIG
LIVD - Dobbiaco, Italy
Distance from station: NO 138km
Dati ricevuti: 18/08/2019 05:55
Few Clouds
Few Clouds
 Vento da Variabile
Vento: Variabile 0 km/h
Temperatura: 14°C
P.to Rugiada: 12°C
Umidità: 88%
Barometro: 1022 hPa
Nuvole: Few Clouds
Visibility: 10 km
Cloud details: Few Clouds 610 m
2019/08/18 05:55 LIVD 180555Z /////KT 9999 FEW020 14/12 Q1022 RMK FEW VIS MIN 9999
 
LIPU - Padova (civ/It-A, Italy
Distance from station: OSO 139km
Dati ricevuti: 15/08/2019 06:00
DATI Obsoleti
Few Clouds
Few Clouds
 Vento da Variabile
Vento: Variabile 6 km/h
Temperatura: 21°C
P.to Rugiada: 15°C
Umidità: 69%
Barometro: 1017 hPa
Nuvole: Few Clouds
Visibility: 10 km
Cloud details: Few Clouds 1219 m
2019/08/15 06:00 LIPU 150600Z VRB03KT 300V020 9999 FEW040 21/15 Q1017
LIVR - Rolle Pass, Italy
Distance from station: ONO 142km
Dati ricevuti: 18/08/2019 05:55
Sereno
Sereno
 Vento da ESE
Vento: ESE 15 km/h
Temperatura: 11°C
P.to Rugiada: 6°C
Umidità: 72%
Barometro: 1023 hPa
Summary: Sereno
Visibility: superiore a 10 km
2019/08/18 05:55 LIVR 180555Z 12008KT CAVOK 11/06 Q1023 RMK SKC MON LIB VIS MIN 9999
 
LJCE - Cerklje, Slovenia
Distance from station: E 157km
Dati ricevuti: 18/08/2019 06:00
Sereno
Sereno
 Vento da O
Vento: O 7 km/h
Temperatura: 18°C
P.to Rugiada: 15°C
Umidità: 83%
Barometro: 1016 hPa
Summary: Sereno
Visibility: superiore a 10 km
2019/08/18 06:00 LJCE 180600Z 26004KT 220V290 CAVOK 18/15 Q1016 RMK BLU
LDLO - Losinj Island, Croatia
Distance from station: SSE 159km
Dati ricevuti: 18/08/2019 06:00
Sereno
Sereno
 Vento da ENE
Vento: ENE 9 km/h
Temperatura: 24°C
P.to Rugiada: 17°C
Umidità: 65%
Barometro: 1015 hPa
Summary: Sereno
Visibility: superiore a 10 km
2019/08/18 06:00 LDLO 180600Z 06005KT CAVOK 24/17 Q1015
 
LOXZ - Zeltweg (mil), Austria
Distance from station: NNE 179km
Dati ricevuti: 18/08/2019 06:20
Molto nuvoloso
Molto nuvoloso
 Vento da SSO
Vento: SSO 2 km/h
Temperatura: 16°C
P.to Rugiada: 13°C
Umidità: 83%
Barometro: 1017 hPa
Nuvole: Molto nuvoloso
Cloud details: Molto nuvoloso 4877 m
2019/08/18 06:20 LOXZ 180620Z 21001KT 40KM BKN160AC 16/13 Q1017 NOSIG
LIPB - Bolzano(Civ/It-A, Italy
Distance from station: ONO 181km
Dati ricevuti: 18/08/2019 05:50
Molto nuvoloso
Molto nuvoloso
 Vento da Variabile
Vento: Variabile 4 km/h
Temperatura: 19°C
P.to Rugiada: 18°C
Umidità: 94%
Barometro: 1017 hPa
Nuvole: Molto nuvoloso
Visibility: 10 km
Cloud details: Molto nuvoloso 1829 m
2019/08/18 05:50 LIPB 180550Z VRB02KT 9999 BKN060 19/18 Q1017